createdAt,value
2023-04-18T00:04:05.469Z,8.59
2023-04-18T00:09:08.500Z,8.56
2023-04-18T00:14:12.270Z,8.56
2023-04-18T00:19:15.672Z,8.53
2023-04-18T00:24:18.487Z,8.50
2023-04-18T00:29:21.271Z,8.48
2023-04-18T00:34:24.122Z,8.46
2023-04-18T00:39:26.988Z,8.44
2023-04-18T00:44:31.488Z,8.44
2023-04-18T00:49:34.338Z,8.44
2023-04-18T00:54:37.075Z,8.44
2023-04-18T00:59:39.883Z,8.44
2023-04-18T01:04:43.757Z,8.45
2023-04-18T01:09:46.578Z,8.43
2023-04-18T01:14:49.416Z,8.41
2023-04-18T01:19:52.227Z,8.42
2023-04-18T01:24:55.873Z,8.40
2023-04-18T01:29:58.738Z,8.37
2023-04-18T01:35:01.889Z,8.38
2023-04-18T01:40:05.504Z,8.37
2023-04-18T01:45:08.548Z,8.38
2023-04-18T01:50:11.597Z,8.40
2023-04-18T01:55:14.446Z,8.40
2023-04-18T02:00:17.782Z,8.40
2023-04-18T02:05:20.775Z,8.40
2023-04-18T02:10:23.995Z,8.38
2023-04-18T02:15:26.867Z,8.40
2023-04-18T02:20:33.682Z,8.42
2023-04-18T02:25:36.573Z,8.44
2023-04-18T02:30:39.442Z,8.44
2023-04-18T02:35:42.347Z,8.48
2023-04-18T02:40:45.745Z,8.48
2023-04-18T02:45:48.671Z,8.46
2023-04-18T02:50:51.496Z,8.46
2023-04-18T02:55:54.327Z,8.45
2023-04-18T03:00:58.065Z,8.42
2023-04-18T03:06:01.013Z,8.39
2023-04-18T03:11:04.127Z,8.38
2023-04-18T03:16:07.088Z,8.39
2023-04-18T03:21:09.952Z,8.37
2023-04-18T03:26:13.950Z,8.37
2023-04-18T03:31:16.789Z,8.37
2023-04-18T03:36:21.220Z,8.38
2023-04-18T03:41:24.170Z,8.37
2023-04-18T03:46:26.972Z,8.39
2023-04-18T03:51:42.790Z,8.40
2023-04-18T03:56:45.635Z,8.42
2023-04-18T04:01:48.603Z,8.42
2023-04-18T04:06:51.364Z,8.42
2023-04-18T04:11:54.159Z,8.45
2023-04-18T04:16:56.924Z,8.46
2023-04-18T04:21:59.724Z,8.42
2023-04-18T04:27:03.696Z,8.43
2023-04-18T04:32:07.102Z,8.45
2023-04-18T04:37:09.981Z,8.50
2023-04-18T04:42:13.436Z,8.54
2023-04-18T04:47:16.395Z,8.61
2023-04-18T04:52:19.405Z,8.69
2023-04-18T04:57:22.247Z,8.77
2023-04-18T05:02:25.260Z,8.86
2023-04-18T05:07:28.376Z,8.95
2023-04-18T05:12:31.476Z,9.02
2023-04-18T05:17:34.238Z,9.10
2023-04-18T05:22:37.154Z,9.17
2023-04-18T05:27:40.087Z,9.21
2023-04-18T05:32:43.264Z,9.29
2023-04-18T05:37:46.141Z,9.30
2023-04-18T05:42:48.881Z,9.33
2023-04-18T05:47:53.853Z,9.40
2023-04-18T05:52:59.310Z,9.45
2023-04-18T05:58:02.253Z,9.56
2023-04-18T06:03:05.837Z,9.66
2023-04-18T06:08:10.720Z,9.73
2023-04-18T06:13:13.603Z,9.80
2023-04-18T06:18:16.603Z,9.86
2023-04-18T06:23:19.515Z,9.97
2023-04-18T06:28:22.359Z,10.05
2023-04-18T06:33:25.281Z,10.08
2023-04-18T06:38:28.144Z,10.10
2023-04-18T06:43:31.344Z,10.15
2023-04-18T06:48:34.334Z,10.10
2023-04-18T06:53:37.172Z,10.02
2023-04-18T06:58:40.203Z,10.00
2023-04-18T07:03:43.142Z,10.06
2023-04-18T07:08:46.294Z,10.09
2023-04-18T07:13:50.309Z,10.07
2023-04-18T07:18:53.200Z,10.14
2023-04-18T07:23:55.994Z,10.16
2023-04-18T07:28:58.793Z,10.35
2023-04-18T07:34:01.541Z,10.58
2023-04-18T07:39:04.310Z,10.81
2023-04-18T07:44:07.121Z,11.15
2023-04-18T07:49:09.925Z,11.57
2023-04-18T07:54:12.979Z,11.92
2023-04-18T07:59:15.951Z,12.19
2023-04-18T08:04:19.189Z,12.35
2023-04-18T08:09:22.084Z,12.49
2023-04-18T08:14:25.100Z,12.79
2023-04-18T08:19:28.142Z,13.05
2023-04-18T08:24:30.926Z,13.42
2023-04-18T08:29:33.680Z,13.61
2023-04-18T08:34:36.447Z,13.67
2023-04-18T08:39:39.331Z,13.77
2023-04-18T08:44:45.203Z,13.83
2023-04-18T08:49:49.340Z,13.93
2023-04-18T08:54:52.685Z,14.28
2023-04-18T08:59:56.574Z,14.62
2023-04-18T09:04:59.823Z,14.65
2023-04-18T09:10:02.670Z,14.69
2023-04-18T09:15:16.427Z,14.81
2023-04-18T09:20:41.324Z,14.85
2023-04-18T09:25:49.270Z,14.93
2023-04-18T09:30:52.765Z,15.15
2023-04-18T09:35:57.252Z,15.40
2023-04-18T09:41:20.847Z,15.66
2023-04-18T09:46:24.449Z,16.09
2023-04-18T09:51:27.416Z,16.63
2023-04-18T09:56:32.001Z,17.10
2023-04-18T10:01:35.048Z,17.39
2023-04-18T10:06:42.180Z,17.74
2023-04-18T10:11:44.957Z,18.07
2023-04-18T10:16:49.950Z,18.84
2023-04-18T10:22:01.052Z,19.72
2023-04-18T10:27:04.194Z,20.16
2023-04-18T10:32:07.739Z,19.93
2023-04-18T10:37:12.972Z,19.75
2023-04-18T10:42:15.969Z,19.51
2023-04-18T10:47:21.024Z,19.61
2023-04-18T10:52:24.042Z,20.99
2023-04-18T10:57:38.974Z,22.31
2023-04-18T11:02:52.269Z,21.87
2023-04-18T11:07:55.444Z,20.92
2023-04-18T11:13:04.404Z,22.72
2023-04-18T11:18:09.197Z,22.72
2023-04-18T11:23:21.494Z,22.63
2023-04-18T11:28:27.181Z,24.17
2023-04-18T11:33:30.092Z,24.12
2023-04-18T11:38:34.708Z,22.66
2023-04-18T11:43:37.647Z,21.39
2023-04-18T11:48:42.404Z,20.42
2023-04-18T11:53:45.537Z,19.48
2023-04-18T11:58:48.430Z,18.93
2023-04-18T12:04:08.049Z,18.51
2023-04-18T12:09:15.348Z,18.21
2023-04-18T12:14:21.947Z,18.16
2023-04-18T12:19:28.279Z,18.06
2023-04-18T12:24:32.379Z,17.99
2023-04-18T12:29:35.671Z,18.07
2023-04-18T12:34:38.488Z,18.15
2023-04-18T12:39:42.605Z,18.51
2023-04-18T12:44:47.898Z,18.82
2023-04-18T12:49:50.782Z,18.74
2023-04-18T12:54:56.366Z,18.47
2023-04-18T13:00:00.049Z,18.03
2023-04-18T13:05:05.508Z,17.71
2023-04-18T13:10:13.816Z,17.45
2023-04-18T13:15:16.818Z,17.23
2023-04-18T13:20:19.618Z,17.01
2023-04-18T13:25:22.870Z,16.99
2023-04-18T13:30:25.814Z,17.25
2023-04-18T13:35:28.592Z,17.68
2023-04-18T13:40:33.476Z,17.79
2023-04-18T13:45:36.398Z,17.63
2023-04-18T13:50:39.890Z,17.62
2023-04-18T13:55:42.856Z,17.62
2023-04-18T14:00:45.935Z,17.42
2023-04-18T14:05:48.914Z,17.14
2023-04-18T14:10:51.831Z,16.74
2023-04-18T14:15:54.917Z,16.50
2023-04-18T14:20:58.222Z,16.38
2023-04-18T14:26:01.071Z,16.42
2023-04-18T14:31:06.499Z,16.64
2023-04-18T14:36:09.864Z,16.76
2023-04-18T14:41:12.697Z,16.71
2023-04-18T14:46:18.573Z,16.54
2023-04-18T14:51:21.403Z,16.37
2023-04-18T14:56:24.369Z,16.31
2023-04-18T15:01:27.185Z,16.31
2023-04-18T15:06:30.132Z,16.31
2023-04-18T15:11:33.005Z,16.17
2023-04-18T15:16:38.125Z,16.07
2023-04-18T15:21:41.112Z,15.97
2023-04-18T15:26:44.006Z,15.91
2023-04-18T15:31:47.299Z,15.82
2023-04-18T15:36:50.059Z,15.71
2023-04-18T15:41:56.646Z,15.60
2023-04-18T15:47:01.214Z,15.54
2023-04-18T15:52:06.264Z,15.42
2023-04-18T15:57:10.357Z,15.29
2023-04-18T16:02:13.169Z,15.25
2023-04-18T16:07:16.590Z,15.20
2023-04-18T16:12:19.316Z,15.11
2023-04-18T16:17:22.060Z,15.05
2023-04-18T16:22:26.007Z,15.02
2023-04-18T16:27:28.976Z,15.02
2023-04-18T16:32:31.910Z,15.02
2023-04-18T16:37:34.837Z,15.03
2023-04-18T16:42:37.719Z,14.95
2023-04-18T16:47:40.745Z,14.86
2023-04-18T16:52:43.680Z,14.83
2023-04-18T16:57:46.468Z,14.74
2023-04-18T17:02:49.453Z,14.62
2023-04-18T17:07:52.679Z,14.50
2023-04-18T17:12:55.555Z,14.39
2023-04-18T17:18:00.338Z,14.28
2023-04-18T17:23:03.329Z,14.19
2023-04-18T17:28:06.186Z,14.11
2023-04-18T17:33:10.209Z,14.00
2023-04-18T17:38:13.402Z,13.91
2023-04-18T17:43:16.446Z,13.82
2023-04-18T17:48:19.299Z,13.74
2023-04-18T17:53:22.289Z,13.64
2023-04-18T17:58:26.170Z,13.55
2023-04-18T18:03:29.096Z,13.47
2023-04-18T18:08:32.358Z,13.36
2023-04-18T18:13:39.051Z,13.29
2023-04-18T18:18:42.018Z,13.20
2023-04-18T18:23:44.926Z,13.13
2023-04-18T18:28:47.907Z,13.08
2023-04-18T18:33:53.798Z,13.06
2023-04-18T18:38:57.912Z,13.07
2023-04-18T18:44:00.843Z,13.06
2023-04-18T18:49:04.105Z,13.04
2023-04-18T18:54:07.289Z,13.03
2023-04-18T18:59:10.157Z,13.03
2023-04-18T19:04:13.211Z,13.02
2023-04-18T19:09:16.531Z,13.00
2023-04-18T19:14:19.419Z,12.94
2023-04-18T19:19:22.216Z,12.90
2023-04-18T19:24:25.192Z,12.87
2023-04-18T19:29:29.200Z,12.86
2023-04-18T19:34:33.589Z,12.82
2023-04-18T19:39:36.635Z,12.80
2023-04-18T19:44:39.545Z,12.78
2023-04-18T19:49:42.325Z,12.76
2023-04-18T19:54:45.124Z,12.74
2023-04-18T19:59:47.880Z,12.72
2023-04-18T20:04:51.862Z,12.69
2023-04-18T20:09:54.829Z,12.66
2023-04-18T20:14:58.856Z,12.63
2023-04-18T20:20:01.767Z,12.59
2023-04-18T20:25:05.853Z,12.54
2023-04-18T20:30:08.927Z,12.48
2023-04-18T20:35:11.950Z,12.41
2023-04-18T20:40:14.861Z,12.38
2023-04-18T20:45:18.131Z,12.31
2023-04-18T20:50:21.010Z,12.25
2023-04-18T20:55:24.079Z,12.17
2023-04-18T21:00:26.820Z,12.12
2023-04-18T21:05:29.690Z,12.04
2023-04-18T21:10:32.548Z,11.99
2023-04-18T21:15:35.868Z,11.89
2023-04-18T21:20:38.712Z,11.83
2023-04-18T21:25:41.586Z,11.74
2023-04-18T21:30:44.306Z,11.69
2023-04-18T21:35:47.099Z,11.61
2023-04-18T21:40:49.829Z,11.55
2023-04-18T21:45:52.743Z,11.49
2023-04-18T21:50:55.888Z,11.43
2023-04-18T21:55:58.618Z,11.38
2023-04-18T22:01:01.500Z,11.32
2023-04-18T22:06:04.555Z,11.27
2023-04-18T22:11:09.205Z,11.19
2023-04-18T22:16:15.309Z,11.12
2023-04-18T22:21:18.193Z,11.07
2023-04-18T22:26:21.071Z,11.02
2023-04-18T22:31:23.964Z,10.97
2023-04-18T22:36:27.789Z,10.93
2023-04-18T22:41:30.584Z,10.85
2023-04-18T22:46:33.351Z,10.82
2023-04-18T22:51:36.226Z,10.74
2023-04-18T22:56:39.310Z,10.68
2023-04-18T23:01:42.256Z,10.64
2023-04-18T23:07:16.991Z,10.62
2023-04-18T23:12:19.828Z,10.57
2023-04-18T23:17:22.690Z,10.53
2023-04-18T23:22:25.611Z,10.51
2023-04-18T23:27:29.687Z,10.48
2023-04-18T23:32:34.133Z,10.41
2023-04-18T23:37:38.122Z,10.28
2023-04-18T23:42:41.069Z,10.13
2023-04-18T23:47:43.812Z,10.06
2023-04-18T23:52:46.735Z,10.04
2023-04-18T23:57:49.546Z,10.01
